createdAt,value
2023-03-11T00:01:50.302Z,4.40
2023-03-11T00:04:51.657Z,3.92
2023-03-11T00:07:52.943Z,4.35
2023-03-11T00:10:54.252Z,4.47
2023-03-11T00:13:55.552Z,3.83
2023-03-11T00:16:56.856Z,4.77
2023-03-11T00:19:58.193Z,5.15
2023-03-11T00:22:59.496Z,4.40
2023-03-11T00:26:00.780Z,5.05
2023-03-11T00:29:02.080Z,4.85
2023-03-11T00:32:03.378Z,3.60
2023-03-11T00:35:04.686Z,6.18
2023-03-11T00:38:05.964Z,4.28
2023-03-11T00:41:07.257Z,5.15
2023-03-11T00:44:08.531Z,5.82
2023-03-11T00:47:09.823Z,4.17
2023-03-11T00:50:11.153Z,4.78
2023-03-11T00:53:12.484Z,3.88
2023-03-11T00:56:13.792Z,4.20
2023-03-11T00:59:15.057Z,3.45
2023-03-11T01:02:16.366Z,4.17
2023-03-11T01:05:17.679Z,3.80
2023-03-11T01:08:18.986Z,3.55
2023-03-11T01:11:20.273Z,3.97
2023-03-11T01:14:21.558Z,3.60
2023-03-11T01:17:22.856Z,4.10
2023-03-11T01:20:24.146Z,4.65
2023-03-11T01:23:25.461Z,4.35
2023-03-11T01:26:26.788Z,4.55
2023-03-11T01:29:28.068Z,4.32
2023-03-11T01:32:29.425Z,3.97
2023-03-11T01:35:30.790Z,4.20
2023-03-11T01:38:32.111Z,4.30
2023-03-11T01:41:33.398Z,4.32
2023-03-11T01:44:34.699Z,5.53
2023-03-11T01:47:35.988Z,3.97
2023-03-11T01:50:37.336Z,5.32
2023-03-11T01:53:38.725Z,4.32
2023-03-11T01:56:40.043Z,3.88
2023-03-11T01:59:41.328Z,5.72
2023-03-11T02:02:42.774Z,3.53
2023-03-11T02:05:44.152Z,4.07
2023-03-11T02:08:45.439Z,4.03
2023-03-11T02:11:46.753Z,3.65
2023-03-11T02:14:48.057Z,3.53
2023-03-11T02:17:49.361Z,3.73
2023-03-11T02:20:50.663Z,3.88
2023-03-11T02:23:51.958Z,4.60
2023-03-11T02:26:53.260Z,3.78
2023-03-11T02:29:54.545Z,3.88
2023-03-11T02:32:55.842Z,4.13
2023-03-11T02:35:57.152Z,4.18
2023-03-11T02:38:58.446Z,3.42
2023-03-11T02:41:59.756Z,3.80
2023-03-11T02:45:01.070Z,3.78
2023-03-11T02:48:02.394Z,3.60
2023-03-11T02:51:03.664Z,3.92
2023-03-11T02:54:04.976Z,3.80
2023-03-11T02:57:06.290Z,3.83
2023-03-11T03:00:07.607Z,2.90
2023-03-11T03:03:08.898Z,3.97
2023-03-11T03:06:10.194Z,3.05
2023-03-11T03:09:11.493Z,3.03
2023-03-11T03:12:12.791Z,3.55
2023-03-11T03:15:14.095Z,3.35
2023-03-11T03:18:15.398Z,2.67
2023-03-11T03:21:16.696Z,3.47
2023-03-11T03:24:18.003Z,3.33
2023-03-11T03:27:19.284Z,2.70
2023-03-11T03:30:20.587Z,2.95
2023-03-11T03:33:21.867Z,3.47
2023-03-11T03:36:23.190Z,3.08
2023-03-11T03:39:24.476Z,2.60
2023-03-11T03:42:25.771Z,3.30
2023-03-11T03:45:27.065Z,3.22
2023-03-11T03:48:28.348Z,2.60
2023-03-11T03:51:29.638Z,2.85
2023-03-11T03:54:30.949Z,2.92
2023-03-11T03:57:32.265Z,3.50
2023-03-11T04:00:33.559Z,2.63
2023-03-11T04:03:34.882Z,3.07
2023-03-11T04:06:36.197Z,2.45
2023-03-11T04:09:37.504Z,4.55
2023-03-11T04:12:38.801Z,2.55
2023-03-11T04:15:40.098Z,2.63
2023-03-11T04:18:41.414Z,2.77
2023-03-11T04:21:42.699Z,2.50
2023-03-11T04:24:44.013Z,2.63
2023-03-11T04:27:45.304Z,2.80
2023-03-11T04:30:46.654Z,2.30
2023-03-11T04:33:47.952Z,2.63
2023-03-11T04:36:49.245Z,2.92
2023-03-11T04:39:50.633Z,3.63
2023-03-11T04:42:51.927Z,3.05
2023-03-11T04:45:53.274Z,3.47
2023-03-11T04:48:54.598Z,2.70
2023-03-11T04:51:55.909Z,2.58
2023-03-11T04:54:57.209Z,2.83
2023-03-11T04:57:58.510Z,3.00
2023-03-11T05:00:59.803Z,2.67
2023-03-11T05:04:01.087Z,2.83
2023-03-11T05:07:02.398Z,2.83
2023-03-11T05:10:03.692Z,2.60
2023-03-11T05:13:05.014Z,2.45
2023-03-11T05:16:06.385Z,2.25
2023-03-11T05:19:07.743Z,2.73
2023-03-11T05:22:09.042Z,2.67
2023-03-11T05:25:10.347Z,2.65
2023-03-11T05:28:11.653Z,3.42
2023-03-11T05:31:12.984Z,2.58
2023-03-11T05:34:14.311Z,2.73
2023-03-11T05:37:15.628Z,2.67
2023-03-11T05:40:16.916Z,2.50
2023-03-11T05:43:18.281Z,4.22
2023-03-11T05:46:19.613Z,2.60
2023-03-11T05:49:20.986Z,2.53
2023-03-11T05:52:22.278Z,2.65
2023-03-11T05:55:23.586Z,2.47
2023-03-11T05:58:24.935Z,2.38
2023-03-11T06:01:26.239Z,2.38
2023-03-11T06:04:27.610Z,2.40
2023-03-11T06:07:28.965Z,2.70
2023-03-11T06:10:30.252Z,2.97
2023-03-11T06:13:31.559Z,2.20
2023-03-11T06:16:32.913Z,2.40
2023-03-11T06:19:34.238Z,2.67
2023-03-11T06:22:35.555Z,2.88
2023-03-11T06:25:36.852Z,2.58
2023-03-11T06:28:38.162Z,2.85
2023-03-11T06:31:39.500Z,2.65
2023-03-11T06:34:40.859Z,2.30
2023-03-11T06:37:42.141Z,1.90
2023-03-11T06:40:43.444Z,4.57
2023-03-11T06:43:44.731Z,2.00
2023-03-11T06:46:46.030Z,2.03
2023-03-11T06:49:47.324Z,2.70
2023-03-11T06:52:48.629Z,2.75
2023-03-11T06:55:49.909Z,2.30
2023-03-11T06:58:51.213Z,2.33
2023-03-11T07:01:52.545Z,2.92
2023-03-11T07:04:53.814Z,2.40
2023-03-11T07:07:55.137Z,2.20
2023-03-11T07:10:56.450Z,2.38
2023-03-11T07:13:57.757Z,2.47
2023-03-11T07:16:59.139Z,2.70
2023-03-11T07:20:00.497Z,2.60
2023-03-11T07:23:01.801Z,2.38
2023-03-11T07:26:03.106Z,2.50
2023-03-11T07:29:04.428Z,2.55
2023-03-11T07:32:05.780Z,2.70
2023-03-11T07:35:07.106Z,2.27
2023-03-11T07:38:08.424Z,2.00
2023-03-11T07:41:09.727Z,2.78
2023-03-11T07:44:11.040Z,1.90
2023-03-11T07:47:12.316Z,2.17
2023-03-11T07:50:13.620Z,2.00
2023-03-11T07:53:14.908Z,2.22
2023-03-11T07:56:16.248Z,2.20
2023-03-11T07:59:17.544Z,1.88
2023-03-11T08:02:18.856Z,1.77
2023-03-11T08:05:20.161Z,2.43
2023-03-11T08:08:21.457Z,2.30
2023-03-11T08:11:22.742Z,2.03
2023-03-11T08:14:24.058Z,2.30
2023-03-11T08:17:25.357Z,2.00
2023-03-11T08:20:26.670Z,1.93
2023-03-11T08:23:27.959Z,2.00
2023-03-11T08:26:29.253Z,1.90
2023-03-11T08:29:30.545Z,2.17
2023-03-11T08:32:31.880Z,2.63
2023-03-11T08:35:33.267Z,2.00
2023-03-11T08:38:34.650Z,1.90
2023-03-11T08:41:35.996Z,2.63
2023-03-11T08:44:37.316Z,2.10
2023-03-11T08:47:38.607Z,1.73
2023-03-11T08:50:52.780Z,2.03
2023-03-11T08:53:55.412Z,1.52
2023-03-11T08:56:56.765Z,1.80
2023-03-11T08:59:58.039Z,1.95
2023-03-11T09:02:59.347Z,2.10
2023-03-11T09:06:00.768Z,2.20
2023-03-11T09:09:02.092Z,1.98
2023-03-11T09:12:03.366Z,2.03
2023-03-11T09:15:04.670Z,2.47
2023-03-11T09:18:05.972Z,2.38
2023-03-11T09:21:07.296Z,2.33
2023-03-11T09:24:08.585Z,1.30
2023-03-11T09:27:09.852Z,1.75
2023-03-11T09:30:11.172Z,1.65
2023-03-11T09:33:12.467Z,2.00
2023-03-11T09:36:13.771Z,1.80
2023-03-11T09:39:15.072Z,1.67
2023-03-11T09:42:16.345Z,1.83
2023-03-11T09:45:17.650Z,1.55
2023-03-11T09:48:20.128Z,1.73
2023-03-11T09:51:23.096Z,3.20
2023-03-11T09:54:24.402Z,1.25
2023-03-11T09:57:25.705Z,1.70
2023-03-11T10:00:27.002Z,1.70
2023-03-11T10:03:28.283Z,1.73
2023-03-11T10:06:29.594Z,1.70
2023-03-11T10:09:30.893Z,1.48
2023-03-11T10:12:32.186Z,1.77
2023-03-11T10:15:33.484Z,1.88
2023-03-11T10:18:34.772Z,1.90
2023-03-11T10:21:36.099Z,2.37
2023-03-11T10:24:37.397Z,1.55
2023-03-11T10:27:40.395Z,1.67
2023-03-11T10:30:43.154Z,1.55
2023-03-11T10:33:46.586Z,1.73
2023-03-11T10:36:48.975Z,1.60
2023-03-11T10:39:50.248Z,1.48
2023-03-11T10:42:51.565Z,2.30
2023-03-11T10:45:52.865Z,1.75
2023-03-11T10:48:55.393Z,1.88
2023-03-11T10:51:56.676Z,1.33
2023-03-11T10:54:57.989Z,1.60
2023-03-11T10:57:59.296Z,2.08
2023-03-11T11:01:00.609Z,1.73
2023-03-11T11:04:02.102Z,1.30
2023-03-11T11:07:03.461Z,2.07
2023-03-11T11:10:04.764Z,1.65
2023-03-11T11:13:06.083Z,1.75
2023-03-11T11:16:07.363Z,1.77
2023-03-11T11:19:08.679Z,2.53
2023-03-11T11:22:09.988Z,1.47
2023-03-11T11:25:11.311Z,1.40
2023-03-11T11:28:12.647Z,1.70
2023-03-11T11:31:13.975Z,1.63
2023-03-11T11:34:15.280Z,1.60
2023-03-11T11:37:16.580Z,1.70
2023-03-11T11:40:17.935Z,2.13
2023-03-11T11:43:19.264Z,1.50
2023-03-11T11:46:20.634Z,1.65
2023-03-11T11:49:21.955Z,1.58
2023-03-11T11:52:23.245Z,2.10
2023-03-11T11:55:24.548Z,1.42
2023-03-11T11:58:25.912Z,1.77
2023-03-11T12:01:27.210Z,2.10
2023-03-11T12:04:28.499Z,1.55
2023-03-11T12:07:29.808Z,1.80
2023-03-11T12:10:31.128Z,1.95
2023-03-11T12:13:32.433Z,2.00
2023-03-11T12:16:33.740Z,1.30
2023-03-11T12:19:35.057Z,1.60
2023-03-11T12:22:36.358Z,1.30
2023-03-11T12:25:37.657Z,1.10
2023-03-11T12:28:38.985Z,1.95
2023-03-11T12:31:40.390Z,1.33
2023-03-11T12:34:41.738Z,1.33
2023-03-11T12:37:43.018Z,1.90
2023-03-11T12:40:44.324Z,1.48
2023-03-11T12:43:45.614Z,1.65
2023-03-11T12:46:46.967Z,1.50
2023-03-11T12:49:48.290Z,2.50
2023-03-11T12:52:49.585Z,1.43
2023-03-11T12:55:50.886Z,1.40
2023-03-11T12:58:52.181Z,2.28
2023-03-11T13:01:53.584Z,1.98
2023-03-11T13:04:54.928Z,2.70
2023-03-11T13:07:56.317Z,1.60
2023-03-11T13:10:57.633Z,1.25
2023-03-11T13:13:58.963Z,1.73
2023-03-11T13:17:00.279Z,1.70
2023-03-11T13:20:01.743Z,1.58
2023-03-11T13:23:03.073Z,1.53
2023-03-11T13:26:04.497Z,1.30
2023-03-11T13:29:05.828Z,1.45
2023-03-11T13:32:07.163Z,1.60
2023-03-11T13:35:08.479Z,1.60
2023-03-11T13:38:09.820Z,1.37
2023-03-11T13:41:11.134Z,1.33
2023-03-11T13:44:12.439Z,1.67
2023-03-11T13:47:13.814Z,1.45
2023-03-11T13:50:15.112Z,1.55
2023-03-11T13:53:16.627Z,1.77
2023-03-11T13:56:17.985Z,1.35
2023-03-11T13:59:19.275Z,1.73
2023-03-11T14:02:20.776Z,2.13
2023-03-11T14:05:22.106Z,0.95
2023-03-11T14:08:23.411Z,1.40
2023-03-11T14:11:24.729Z,1.45
2023-03-11T14:14:26.041Z,1.27
2023-03-11T14:17:27.664Z,1.63
2023-03-11T14:20:29.132Z,1.60
2023-03-11T14:23:30.568Z,1.33
2023-03-11T14:26:31.896Z,1.10
2023-03-11T14:29:33.206Z,1.38
2023-03-11T14:32:34.574Z,1.10
2023-03-11T14:35:36.619Z,1.52
2023-03-11T14:38:39.430Z,1.30
2023-03-11T14:41:40.818Z,1.25
2023-03-11T14:44:42.513Z,1.73
2023-03-11T14:47:44.208Z,1.40
2023-03-11T14:50:45.961Z,1.27
2023-03-11T14:53:47.644Z,1.20
2023-03-11T14:56:49.007Z,1.55
2023-03-11T14:59:50.279Z,1.52
2023-03-11T15:02:51.873Z,1.40
2023-03-11T15:05:53.321Z,1.58
2023-03-11T15:08:55.062Z,1.13
2023-03-11T15:11:56.836Z,1.10
2023-03-11T15:14:59.086Z,1.40
2023-03-11T15:18:00.428Z,1.50
2023-03-11T15:21:01.715Z,1.10
2023-03-11T15:24:03.042Z,1.17
2023-03-11T15:27:04.338Z,1.20
2023-03-11T15:30:05.877Z,1.40
2023-03-11T15:33:07.227Z,1.30
2023-03-11T15:36:08.899Z,1.55
2023-03-11T15:39:10.555Z,1.23
2023-03-11T15:42:12.199Z,1.60
2023-03-11T15:45:13.623Z,1.52
2023-03-11T15:48:14.933Z,1.60
2023-03-11T15:51:16.312Z,1.40
2023-03-11T15:54:17.648Z,1.53
2023-03-11T15:57:18.972Z,1.10
2023-03-11T16:00:21.276Z,1.40
2023-03-11T16:03:22.732Z,1.20
2023-03-11T16:06:24.430Z,1.38
2023-03-11T16:09:25.787Z,1.33
2023-03-11T16:12:27.203Z,1.42
2023-03-11T16:15:28.914Z,1.70
2023-03-11T16:18:30.431Z,2.55
2023-03-11T16:21:32.173Z,1.48
2023-03-11T16:24:33.833Z,1.20
2023-03-11T16:27:35.613Z,1.23
2023-03-11T16:30:37.006Z,1.17
2023-03-11T16:33:38.388Z,1.50
2023-03-11T16:36:39.747Z,3.45
2023-03-11T16:39:41.069Z,1.20
2023-03-11T16:42:42.576Z,1.77
2023-03-11T16:45:44.275Z,1.95
2023-03-11T16:48:45.672Z,1.20
2023-03-11T16:51:47.399Z,1.80
2023-03-11T16:54:48.834Z,1.60
2023-03-11T16:57:50.179Z,1.70
2023-03-11T17:00:51.622Z,1.60
2023-03-11T17:03:53.114Z,1.70
2023-03-11T17:06:54.854Z,1.83
2023-03-11T17:09:56.241Z,1.30
2023-03-11T17:12:58.005Z,1.50
2023-03-11T17:15:59.629Z,1.70
2023-03-11T17:19:00.997Z,1.50
2023-03-11T17:22:02.734Z,1.42
2023-03-11T17:25:04.094Z,2.03
2023-03-11T17:28:05.438Z,2.03
2023-03-11T17:31:06.755Z,1.40
2023-03-11T17:34:08.074Z,1.40
2023-03-11T17:37:09.823Z,1.45
2023-03-11T17:40:11.468Z,1.37
2023-03-11T17:43:13.192Z,1.65
2023-03-11T17:46:14.962Z,1.80
2023-03-11T17:49:16.739Z,1.58
2023-03-11T17:52:18.471Z,1.70
2023-03-11T17:55:20.332Z,1.80
2023-03-11T17:58:22.173Z,1.48
2023-03-11T18:01:24.981Z,1.95
2023-03-11T18:04:26.850Z,1.38
2023-03-11T18:07:28.614Z,2.38
2023-03-11T18:10:30.413Z,1.53
2023-03-11T18:13:32.062Z,1.63
2023-03-11T18:16:33.910Z,1.75
2023-03-11T18:19:35.874Z,1.40
2023-03-11T18:22:40.109Z,1.70
2023-03-11T18:25:43.901Z,1.70
2023-03-11T18:28:45.664Z,2.25
2023-03-11T18:31:47.611Z,1.80
2023-03-11T18:34:49.365Z,1.30
2023-03-11T18:37:52.213Z,1.95
2023-03-11T18:40:53.906Z,1.60
2023-03-11T18:43:55.971Z,1.50
2023-03-11T18:46:58.276Z,1.70
2023-03-11T18:50:00.063Z,1.83
2023-03-11T18:53:01.411Z,1.48
2023-03-11T18:56:03.656Z,1.50
2023-03-11T18:59:05.757Z,1.70
2023-03-11T19:02:07.646Z,1.40
2023-03-11T19:05:09.571Z,1.40
2023-03-11T19:08:12.416Z,1.40
2023-03-11T19:11:14.339Z,1.37
2023-03-11T19:14:16.146Z,1.50
2023-03-11T19:17:18.165Z,1.63
2023-03-11T19:20:20.014Z,1.40
2023-03-11T19:23:21.835Z,1.67
2023-03-11T19:26:33.685Z,1.73
2023-03-11T19:29:39.468Z,1.60
2023-03-11T19:32:41.319Z,1.80
2023-03-11T19:35:43.187Z,1.55
2023-03-11T19:38:44.683Z,1.50
2023-03-11T19:41:46.025Z,1.40
2023-03-11T19:44:47.800Z,1.17
2023-03-11T19:47:49.594Z,1.85
2023-03-11T19:50:51.465Z,1.65
2023-03-11T19:53:53.503Z,1.60
2023-03-11T19:56:55.352Z,1.40
2023-03-11T19:59:57.038Z,1.48
2023-03-11T20:02:58.916Z,1.30
2023-03-11T20:06:00.912Z,1.77
2023-03-11T20:09:02.318Z,2.35
2023-03-11T20:12:04.080Z,1.73
2023-03-11T20:15:05.938Z,1.52
2023-03-11T20:18:07.292Z,1.40
2023-03-11T20:21:11.426Z,1.60
2023-03-11T20:24:13.298Z,1.20
2023-03-11T20:27:15.094Z,1.80
2023-03-11T20:30:19.971Z,1.80
2023-03-11T20:33:21.821Z,1.88
2023-03-11T20:36:23.260Z,1.17
2023-03-11T20:39:25.068Z,1.55
2023-03-11T20:42:26.501Z,1.60
2023-03-11T20:45:28.268Z,1.48
2023-03-11T20:48:30.802Z,1.50
2023-03-11T20:51:32.426Z,1.58
2023-03-11T20:54:34.212Z,1.77
2023-03-11T20:57:35.633Z,2.10
2023-03-11T21:00:37.274Z,1.40
2023-03-11T21:03:38.840Z,1.90
2023-03-11T21:06:40.662Z,2.10
2023-03-11T21:09:42.092Z,1.80
2023-03-11T21:12:43.903Z,2.20
2023-03-11T21:15:46.254Z,1.33
2023-03-11T21:18:49.448Z,1.92
2023-03-11T21:21:51.087Z,1.58
2023-03-11T21:24:52.911Z,1.80
2023-03-11T21:27:54.823Z,1.40
2023-03-11T21:30:56.534Z,2.55
2023-03-11T21:33:57.915Z,2.08
2023-03-11T21:36:59.235Z,1.45
2023-03-11T21:40:00.674Z,1.70
2023-03-11T21:43:02.143Z,1.53
2023-03-11T21:46:03.579Z,1.85
2023-03-11T21:49:04.915Z,3.75
2023-03-11T21:52:06.290Z,1.58
2023-03-11T21:55:07.763Z,1.80
2023-03-11T21:58:09.296Z,1.70
2023-03-11T22:01:10.727Z,1.75
2023-03-11T22:04:12.374Z,1.92
2023-03-11T22:07:13.888Z,1.40
2023-03-11T22:10:15.181Z,1.60
2023-03-11T22:13:16.496Z,1.70
2023-03-11T22:16:17.900Z,1.40
2023-03-11T22:19:19.523Z,4.63
2023-03-11T22:22:20.992Z,2.55
2023-03-11T22:25:22.293Z,1.50
2023-03-11T22:28:23.599Z,1.50
2023-03-11T22:31:24.889Z,2.03
2023-03-11T22:34:26.206Z,2.15
2023-03-11T22:37:27.522Z,1.70
2023-03-11T22:40:28.845Z,1.85
2023-03-11T22:43:30.152Z,1.43
2023-03-11T22:46:31.460Z,2.20
2023-03-11T22:49:32.787Z,1.65
2023-03-11T22:52:34.091Z,1.90
2023-03-11T22:55:35.381Z,1.92
2023-03-11T22:58:36.684Z,1.37
2023-03-11T23:01:37.988Z,1.85
2023-03-11T23:04:39.289Z,2.28
2023-03-11T23:07:40.590Z,1.50
2023-03-11T23:10:41.890Z,1.50
2023-03-11T23:13:43.177Z,2.30
2023-03-11T23:16:44.594Z,2.00
2023-03-11T23:19:45.912Z,1.73
2023-03-11T23:22:47.203Z,2.10
2023-03-11T23:25:48.500Z,2.45
2023-03-11T23:28:49.808Z,1.77
2023-03-11T23:31:51.105Z,1.77
2023-03-11T23:34:52.395Z,1.88
2023-03-11T23:37:53.714Z,1.98
2023-03-11T23:40:55.021Z,1.80
2023-03-11T23:43:56.321Z,1.63
2023-03-11T23:46:57.622Z,1.40
2023-03-11T23:49:58.895Z,1.60
2023-03-11T23:53:00.269Z,1.25
2023-03-11T23:56:01.553Z,1.63
2023-03-11T23:59:02.872Z,1.60
